createdAt,value
2022-09-07T00:00:08.188Z,44.83
2022-09-07T00:05:08.667Z,44.93
2022-09-07T00:10:08.380Z,45.09
2022-09-07T00:15:08.067Z,45.19
2022-09-07T00:20:07.794Z,45.37
2022-09-07T00:25:08.491Z,45.46
2022-09-07T00:30:08.186Z,45.61
2022-09-07T00:35:07.868Z,45.64
2022-09-07T00:40:08.627Z,45.81
2022-09-07T00:45:08.310Z,45.86
2022-09-07T00:50:08.046Z,45.96
2022-09-07T00:55:07.743Z,45.96
2022-09-07T01:00:08.442Z,46.12
2022-09-07T01:05:09.624Z,46.17
2022-09-07T01:10:08.410Z,46.27
2022-09-07T01:15:08.103Z,46.29
2022-09-07T01:20:07.833Z,46.39
2022-09-07T01:25:08.511Z,46.43
2022-09-07T01:30:08.207Z,46.51
2022-09-07T01:35:07.915Z,46.51
2022-09-07T01:40:08.712Z,46.61
2022-09-07T01:45:08.439Z,46.63
2022-09-07T01:50:08.145Z,46.68
2022-09-07T01:55:07.841Z,46.71
2022-09-07T02:00:08.539Z,46.76
2022-09-07T02:05:08.224Z,46.79
2022-09-07T02:10:07.893Z,46.8
2022-09-07T02:15:08.560Z,46.86
2022-09-07T02:20:08.267Z,46.89
2022-09-07T02:25:07.923Z,46.94
2022-09-07T02:30:08.593Z,46.96
2022-09-07T02:35:08.314Z,46.98
2022-09-07T02:40:08.086Z,47.03
2022-09-07T02:45:07.801Z,47.05
2022-09-07T02:50:08.501Z,47.11
2022-09-07T02:55:18.178Z,47.13
2022-09-07T03:00:07.844Z,47.16
2022-09-07T03:05:08.533Z,47.22
2022-09-07T03:10:08.205Z,47.25
2022-09-07T03:15:07.895Z,47.27
2022-09-07T03:20:08.595Z,47.32
2022-09-07T03:25:08.298Z,47.34
2022-09-07T03:30:08.017Z,47.4
2022-09-07T03:35:07.700Z,47.41
2022-09-07T03:40:08.482Z,47.43
2022-09-07T03:45:08.262Z,47.45
2022-09-07T03:50:07.933Z,47.51
2022-09-07T03:55:08.622Z,47.52
2022-09-07T04:00:08.552Z,47.58
2022-09-07T04:05:02.317Z,47.6
2022-09-07T04:10:02.135Z,47.63
2022-09-07T04:15:01.988Z,47.64
2022-09-07T04:20:01.909Z,47.67
2022-09-07T04:25:02.809Z,47.68
2022-09-07T04:30:02.466Z,47.71
2022-09-07T04:35:02.452Z,47.73
2022-09-07T04:40:02.423Z,47.77
2022-09-07T04:45:02.361Z,47.78
2022-09-07T04:50:02.118Z,47.77
2022-09-07T04:55:02.016Z,47.9
2022-09-07T05:00:01.902Z,48.08
2022-09-07T05:05:03.066Z,48.19
2022-09-07T05:10:02.135Z,48.29
2022-09-07T05:15:02.039Z,48.41
2022-09-07T05:20:01.756Z,48.56
2022-09-07T05:25:02.941Z,48.65
2022-09-07T05:30:03.865Z,48.69
2022-09-07T05:35:01.753Z,48.87
2022-09-07T05:40:02.861Z,49.0
2022-09-07T05:45:02.664Z,49.07
2022-09-07T05:50:02.604Z,49.15
2022-09-07T05:55:19.627Z,49.3
2022-09-07T06:00:02.439Z,49.35
2022-09-07T06:05:02.197Z,49.5
2022-09-07T06:15:01.767Z,49.68
2022-09-07T06:20:02.602Z,49.78
2022-09-07T06:25:02.386Z,49.82
2022-09-07T06:30:02.139Z,49.93
2022-09-07T06:35:01.946Z,49.98
2022-09-07T06:40:01.777Z,50.05
2022-09-07T06:45:02.691Z,50.11
2022-09-07T06:50:02.516Z,50.15
2022-09-07T06:55:02.347Z,50.21
2022-09-07T07:00:02.533Z,50.25
2022-09-07T07:05:02.264Z,50.31
2022-09-07T07:10:02.027Z,50.36
2022-09-07T07:15:01.888Z,50.42
2022-09-07T07:20:02.802Z,50.5
2022-09-07T07:25:02.765Z,50.52
2022-09-07T07:30:02.658Z,50.59
2022-09-07T07:35:02.669Z,50.67
2022-09-07T07:40:19.969Z,50.7
2022-09-07T07:50:33.081Z,50.77
2022-09-07T07:55:42.502Z,50.83
2022-09-07T08:00:01.831Z,50.87
2022-09-07T08:05:02.584Z,50.88
2022-09-07T08:10:02.402Z,50.98
2022-09-07T08:15:02.208Z,51.01
2022-09-07T08:20:02.099Z,51.06
2022-09-07T08:25:01.969Z,51.06
2022-09-07T08:30:02.348Z,51.11
2022-09-07T08:35:02.168Z,51.12
2022-09-07T08:40:02.023Z,51.19
2022-09-07T08:45:01.868Z,51.21
2022-09-07T08:50:02.699Z,51.29
2022-09-07T08:55:02.517Z,51.33
2022-09-07T09:00:02.335Z,51.39
2022-09-07T09:05:18.517Z,51.43
2022-09-07T09:10:02.726Z,51.47
2022-09-07T09:15:02.784Z,51.52
2022-09-07T09:20:02.647Z,51.62
2022-09-07T09:25:02.607Z,51.64
2022-09-07T09:30:02.369Z,51.68
2022-09-07T09:35:02.256Z,51.73
2022-09-07T09:40:03.039Z,51.77
2022-09-07T09:45:02.065Z,51.8
2022-09-07T09:50:01.833Z,51.8
2022-09-07T09:55:23.672Z,51.85
2022-09-07T10:00:05.497Z,51.93
2022-09-07T10:05:02.089Z,52.0
2022-09-07T10:10:01.874Z,51.98
2022-09-07T10:15:02.766Z,52.03
2022-09-07T10:20:12.753Z,52.09
2022-09-07T10:25:03.370Z,52.12
2022-09-07T10:30:02.325Z,52.14
2022-09-07T10:35:02.247Z,52.14
2022-09-07T10:40:02.064Z,52.08
2022-09-07T10:45:01.912Z,52.04
2022-09-07T10:50:23.775Z,52.0
2022-09-07T10:55:03.396Z,51.98
2022-09-07T11:00:09.649Z,51.89
2022-09-07T11:05:01.892Z,51.9
2022-09-07T11:10:02.697Z,51.86
2022-09-07T11:15:02.499Z,51.83
2022-09-07T11:20:02.439Z,51.79
2022-09-07T11:25:30.688Z,51.75
2022-09-07T11:30:02.924Z,51.74
2022-09-07T11:35:12.669Z,51.73
2022-09-07T11:40:02.582Z,51.7
2022-09-07T11:45:02.442Z,51.64
2022-09-07T11:50:02.236Z,51.59
2022-09-07T11:55:02.087Z,51.54
2022-09-07T12:00:02.111Z,51.5
2022-09-07T12:05:02.009Z,51.49
2022-09-07T12:10:01.857Z,51.47
2022-09-07T12:15:12.624Z,51.41
2022-09-07T12:20:02.478Z,51.37
2022-09-07T12:25:02.322Z,51.35
2022-09-07T12:30:02.183Z,51.32
2022-09-07T12:35:02.299Z,51.3
2022-09-07T12:40:02.288Z,51.26
2022-09-07T12:45:02.223Z,51.19
2022-09-07T12:50:02.196Z,51.1
2022-09-07T12:55:26.534Z,51.02
2022-09-07T13:00:02.831Z,50.93
2022-09-07T13:05:02.764Z,50.85
2022-09-07T13:10:02.705Z,50.75
2022-09-07T13:15:02.606Z,50.69
2022-09-07T13:20:03.142Z,50.63
2022-09-07T13:25:02.304Z,50.57
2022-09-07T13:30:02.123Z,50.45
2022-09-07T13:35:01.964Z,50.42
2022-09-07T13:40:03.583Z,50.33
2022-09-07T13:45:02.395Z,50.31
2022-09-07T13:50:02.210Z,50.18
2022-09-07T13:55:02.093Z,50.17
2022-09-07T14:00:01.919Z,50.06
2022-09-07T14:05:02.748Z,50.07
2022-09-07T14:10:03.242Z,49.98
2022-09-07T14:15:05.765Z,49.95
2022-09-07T14:20:02.151Z,49.95
2022-09-07T14:25:01.997Z,49.91
2022-09-07T14:30:01.897Z,49.83
2022-09-07T14:35:02.713Z,49.79
2022-09-07T14:40:02.556Z,49.75
2022-09-07T14:45:02.391Z,49.71
2022-09-07T14:50:02.199Z,49.64
2022-09-07T14:55:01.945Z,49.6
2022-09-07T15:00:02.767Z,49.53
2022-09-07T15:05:02.547Z,49.47
2022-09-07T15:10:02.388Z,49.48
2022-09-07T15:15:02.383Z,49.45
2022-09-07T15:20:02.528Z,49.4
2022-09-07T15:25:02.486Z,49.36
2022-09-07T15:30:02.383Z,49.33
2022-09-07T15:35:02.234Z,49.26
2022-09-07T15:40:02.354Z,49.23
2022-09-07T15:45:02.476Z,49.21
2022-09-07T15:50:02.345Z,49.2
2022-09-07T15:55:02.297Z,49.19
2022-09-07T16:00:02.075Z,49.1
2022-09-07T16:05:02.028Z,49.07
2022-09-07T16:10:02.744Z,49.08
2022-09-07T16:15:02.662Z,49.08
2022-09-07T16:20:02.571Z,49.05
2022-09-07T16:25:02.404Z,49.03
2022-09-07T16:30:02.332Z,49.03
2022-09-07T16:35:02.162Z,49.01
2022-09-07T16:40:02.032Z,49.0
2022-09-07T16:50:02.606Z,48.96
2022-09-07T16:55:02.352Z,48.96
2022-09-07T17:00:02.200Z,48.92
2022-09-07T17:05:02.015Z,48.92
2022-09-07T17:10:02.160Z,48.96
2022-09-07T17:15:01.969Z,48.95
2022-09-07T17:20:01.708Z,48.99
2022-09-07T17:25:02.559Z,49.0
2022-09-07T17:30:02.403Z,49.05
2022-09-07T17:35:02.403Z,49.08
2022-09-07T17:40:05.411Z,49.08
2022-09-07T17:45:02.576Z,49.11
2022-09-07T17:50:02.380Z,49.15
2022-09-07T17:55:02.449Z,49.17
2022-09-07T18:00:11.200Z,49.21
2022-09-07T18:05:02.901Z,49.23
2022-09-07T18:10:02.902Z,49.26
2022-09-07T18:15:02.847Z,49.28
2022-09-07T18:20:02.707Z,49.35
2022-09-07T18:25:03.547Z,49.36
2022-09-07T18:30:02.478Z,49.41
2022-09-07T18:35:02.376Z,49.45
2022-09-07T18:40:02.276Z,49.51
2022-09-07T18:45:28.674Z,49.55
2022-09-07T18:50:02.601Z,49.6
2022-09-07T18:55:02.795Z,49.62
2022-09-07T19:00:03.241Z,49.69
2022-09-07T19:10:02.388Z,49.8
2022-09-07T19:15:02.348Z,49.81
2022-09-07T19:20:02.204Z,49.87
2022-09-07T19:25:02.002Z,49.92
2022-09-07T19:30:01.787Z,49.98
2022-09-07T19:35:02.820Z,50.0
2022-09-07T19:40:02.706Z,50.05
2022-09-07T19:45:02.589Z,50.06
2022-09-07T19:50:02.537Z,50.15
2022-09-07T19:55:02.348Z,50.17
2022-09-07T20:00:02.186Z,50.21
2022-09-07T20:05:01.987Z,50.24
2022-09-07T20:10:01.818Z,50.32
2022-09-07T20:15:02.593Z,50.32
2022-09-07T20:20:02.382Z,50.36
2022-09-07T20:25:02.106Z,50.4
2022-09-07T20:30:01.839Z,50.45
2022-09-07T20:35:15.565Z,50.43
2022-09-07T20:40:08.344Z,50.5
2022-09-07T20:45:08.076Z,50.51
2022-09-07T20:50:07.797Z,50.55
2022-09-07T20:55:08.478Z,50.58
2022-09-07T21:00:08.164Z,50.59
2022-09-07T21:05:07.905Z,50.61
2022-09-07T21:10:08.686Z,50.65
2022-09-07T21:15:08.399Z,50.68
2022-09-07T21:20:08.095Z,50.71
2022-09-07T21:25:07.785Z,50.72
2022-09-07T21:30:08.483Z,50.75
2022-09-07T21:35:08.160Z,50.76
2022-09-07T21:40:07.898Z,50.82
2022-09-07T21:45:08.633Z,50.81
2022-09-07T21:50:08.331Z,50.85
2022-09-07T21:55:08.069Z,50.85
2022-09-07T22:00:07.795Z,50.88
2022-09-07T22:05:08.538Z,50.93
2022-09-07T22:10:08.313Z,50.95
2022-09-07T22:15:08.020Z,50.96
2022-09-07T22:20:07.724Z,50.99
2022-09-07T22:25:08.431Z,51.01
2022-09-07T22:30:08.106Z,51.03
2022-09-07T22:35:07.788Z,51.06
2022-09-07T22:40:08.577Z,51.08
2022-09-07T22:45:08.320Z,51.1
2022-09-07T22:50:08.011Z,51.13
2022-09-07T22:55:07.717Z,51.13
2022-09-07T23:01:01.096Z,51.16
2022-09-07T23:05:07.894Z,51.17
2022-09-07T23:10:08.563Z,51.2
2022-09-07T23:15:08.246Z,51.22
2022-09-07T23:20:07.934Z,51.22
2022-09-07T23:25:08.677Z,51.24
2022-09-07T23:30:08.370Z,51.22
2022-09-07T23:35:08.065Z,51.22
2022-09-07T23:40:07.805Z,51.26
2022-09-07T23:45:08.521Z,51.27
2022-09-07T23:50:08.212Z,51.27
2022-09-07T23:55:07.930Z,51.25
